Time;durP1;ratioP1;P1;durP2;ratioP2;P2;SDS_P1;SDS_P2;PMS_P1;PMS_P2;Temp;Humidity;BMP_temperature;BMP_pressure;BME280_temperature;BME280_humidity;BME280_pressure;Samples;Min_cycle;Max_cycle;Signal;HPM_P1;HPM_P2
2023/07/03 00:01:00;;;;;;;10.00;3.95;;;17.10;90.20;;;;;;4906340;29;20119;-78
2023/07/03 00:03:51;;;;;;;10.35;4.18;;;17.10;90.20;;;;;;4908473;29;20046;-79
2023/07/03 00:06:37;;;;;;;10.52;3.85;;;17.10;90.00;;;;;;4935525;29;20051;-79
2023/07/03 00:09:30;;;;;;;12.10;3.78;;;17.20;89.60;;;;;;4919114;29;20460;-79
2023/07/03 00:12:18;;;;;;;8.43;4.10;;;17.10;89.40;;;;;;4919627;29;20564;-79
2023/07/03 00:15:05;;;;;;;9.13;4.20;;;17.20;90.00;;;;;;4902571;29;20114;-79
2023/07/03 00:17:51;;;;;;;10.68;4.47;;;17.10;89.60;;;;;;4917958;29;20044;-79
2023/07/03 00:20:38;;;;;;;11.77;4.32;;;17.10;90.00;;;;;;4911401;29;20044;-79
2023/07/03 00:23:27;;;;;;;10.18;3.67;;;17.10;90.10;;;;;;4924776;29;20051;-79
2023/07/03 00:26:13;;;;;;;9.23;4.03;;;17.10;90.10;;;;;;4921107;29;20076;-79
2023/07/03 00:28:59;;;;;;;9.88;4.07;;;17.10;90.20;;;;;;4914387;29;20046;-79
2023/07/03 00:31:48;;;;;;;9.52;4.40;;;17.00;90.50;;;;;;4918248;29;20552;-79
2023/07/03 00:34:34;;;;;;;12.25;4.88;;;17.00;90.60;;;;;;4913609;29;20044;-79
2023/07/03 00:37:23;;;;;;;9.07;3.67;;;17.00;90.40;;;;;;4918624;29;20119;-79
2023/07/03 00:40:10;;;;;;;9.35;4.25;;;16.90;90.70;;;;;;4924928;29;20040;-79
2023/07/03 00:42:56;;;;;;;9.10;4.25;;;17.00;90.70;;;;;;4918629;29;20224;-78
2023/07/03 00:45:43;;;;;;;9.93;3.63;;;17.00;90.70;;;;;;4918760;29;20051;-78
2023/07/03 00:48:30;;;;;;;10.73;4.15;;;17.00;90.60;;;;;;4908059;29;20041;-79
2023/07/03 00:51:16;;;;;;;10.13;4.50;;;17.00;90.60;;;;;;4917070;29;20040;-80
2023/07/03 00:54:02;;;;;;;12.80;4.30;;;17.00;90.80;;;;;;4922501;29;20031;-80
2023/07/03 00:56:48;;;;;;;9.63;4.40;;;16.90;90.80;;;;;;4916650;29;20054;-80
2023/07/03 00:59:34;;;;;;;10.27;4.07;;;16.80;91.10;;;;;;4919148;29;20133;-80
2023/07/03 01:02:35;;;;;;;8.60;3.95;;;16.90;90.90;;;;;;4917632;29;20048;-80
2023/07/03 01:05:32;;;;;;;13.02;4.22;;;17.00;90.90;;;;;;4921317;29;20087;-80
2023/07/03 01:08:18;;;;;;;9.90;4.38;;;16.90;91.00;;;;;;4934299;29;20044;-80
2023/07/03 01:11:05;;;;;;;12.77;4.43;;;16.90;91.10;;;;;;4917688;29;20123;-80
2023/07/03 01:13:53;;;;;;;9.45;4.40;;;16.80;91.40;;;;;;4916807;29;20135;-80
2023/07/03 01:16:39;;;;;;;9.85;4.20;;;16.80;91.30;;;;;;4904225;29;20757;-79
2023/07/03 01:19:30;;;;;;;10.30;4.88;;;16.80;91.40;;;;;;4918137;29;20044;-79
2023/07/03 01:22:26;;;;;;;10.82;3.92;;;16.90;91.30;;;;;;4913971;29;20046;-79
2023/07/03 01:25:14;;;;;;;9.13;4.30;;;17.00;91.40;;;;;;4922176;29;20431;-79
2023/07/03 01:28:00;;;;;;;11.43;4.43;;;17.00;91.70;;;;;;4918742;29;20044;-78
2023/07/03 01:30:46;;;;;;;10.88;4.40;;;17.00;92.30;;;;;;4918057;29;20032;-78
2023/07/03 01:33:32;;;;;;;9.50;4.63;;;17.00;92.50;;;;;;4918970;29;20040;-78
2023/07/03 01:36:18;;;;;;;12.88;4.43;;;17.00;92.70;;;;;;4916660;29;20068;-78
2023/07/03 01:39:06;;;;;;;8.15;4.97;;;16.90;92.80;;;;;;4918494;29;20072;-78
2023/07/03 01:41:52;;;;;;;14.85;5.50;;;16.90;93.00;;;;;;4909772;29;20134;-78
2023/07/03 01:44:39;;;;;;;11.25;4.80;;;16.80;92.90;;;;;;4900393;29;20036;-78
2023/07/03 01:47:25;;;;;;;11.80;4.65;;;16.80;92.90;;;;;;4917107;29;20048;-78
2023/07/03 01:50:16;;;;;;;11.43;4.50;;;16.80;92.80;;;;;;4917719;29;20035;-78
2023/07/03 01:53:08;;;;;;;10.80;4.53;;;16.80;93.00;;;;;;4913924;29;20047;-79
2023/07/03 01:56:06;;;;;;;10.27;4.50;;;16.80;93.00;;;;;;4909540;29;20037;-78
2023/07/03 01:58:55;;;;;;;10.52;4.50;;;16.70;93.00;;;;;;4904820;29;20501;-78
2023/07/03 02:01:56;;;;;;;10.95;4.15;;;16.70;93.00;;;;;;4912870;29;20039;-78
2023/07/03 02:05:00;;;;;;;11.48;4.47;;;16.70;92.90;;;;;;4915454;29;20067;-78
2023/07/03 02:07:47;;;;;;;11.57;4.97;;;16.60;92.80;;;;;;4906744;29;20549;-78
2023/07/03 02:10:33;;;;;;;13.38;4.70;;;16.60;92.70;;;;;;4904748;29;20055;-78
2023/07/03 02:13:19;;;;;;;11.80;4.72;;;16.60;92.60;;;;;;4911597;29;20075;-78
2023/07/03 02:16:05;;;;;;;11.57;4.53;;;16.60;92.70;;;;;;4918181;29;20086;-78
2023/07/03 02:18:51;;;;;;;13.27;4.60;;;16.60;92.50;;;;;;4903264;29;20377;-78
2023/07/03 02:21:38;;;;;;;13.73;5.72;;;16.60;92.70;;;;;;4903816;29;20135;-78
2023/07/03 02:24:24;;;;;;;11.85;4.72;;;16.50;92.60;;;;;;4905227;29;20378;-78
2023/07/03 02:27:10;;;;;;;13.57;4.70;;;16.60;92.80;;;;;;4896553;29;20508;-78
2023/07/03 02:29:56;;;;;;;18.75;5.78;;;16.50;92.70;;;;;;4903894;29;20040;-78
2023/07/03 02:32:42;;;;;;;11.77;4.68;;;16.50;92.50;;;;;;4917789;29;20522;-78
2023/07/03 02:35:29;;;;;;;11.50;4.32;;;16.60;92.50;;;;;;4898005;29;20052;-78
2023/07/03 02:38:15;;;;;;;10.45;4.93;;;16.60;92.70;;;;;;4905615;29;20066;-78
2023/07/03 02:41:02;;;;;;;11.82;5.05;;;16.60;92.70;;;;;;4914999;29;20051;-78
2023/07/03 02:43:49;;;;;;;12.67;4.90;;;16.50;92.90;;;;;;4891750;29;20047;-79
2023/07/03 02:46:35;;;;;;;11.88;4.78;;;16.50;92.80;;;;;;4903068;29;20099;-79
2023/07/03 02:49:21;;;;;;;14.93;5.00;;;16.50;93.10;;;;;;4915387;29;20115;-79
2023/07/03 02:52:08;;;;;;;11.50;4.70;;;16.50;93.20;;;;;;4900429;29;20044;-79
2023/07/03 02:54:54;;;;;;;15.20;5.00;;;16.50;93.40;;;;;;4916914;29;20047;-78
2023/07/03 02:57:40;;;;;;;16.10;6.00;;;16.50;93.40;;;;;;4918973;29;20075;-78
2023/07/03 03:00:28;;;;;;;15.02;4.88;;;16.40;93.50;;;;;;4909613;29;20040;-79
2023/07/03 03:03:14;;;;;;;15.23;5.27;;;16.50;93.60;;;;;;4909953;29;20047;-79
2023/07/03 03:06:00;;;;;;;12.13;4.90;;;16.40;93.60;;;;;;4905911;29;20138;-78
2023/07/03 03:08:46;;;;;;;13.98;4.72;;;16.40;93.70;;;;;;4903104;29;20151;-78
2023/07/03 03:11:32;;;;;;;16.40;5.25;;;16.50;93.60;;;;;;4906552;29;20059;-78
2023/07/03 03:14:18;;;;;;;12.90;4.93;;;16.50;93.50;;;;;;4915783;29;20107;-78
2023/07/03 03:17:04;;;;;;;14.10;4.88;;;16.50;93.60;;;;;;4904813;29;20507;-78
2023/07/03 03:19:50;;;;;;;11.77;5.20;;;16.40;93.90;;;;;;4898735;29;20414;-78
2023/07/03 03:22:36;;;;;;;11.20;5.00;;;16.40;94.00;;;;;;4902807;29;20048;-78
2023/07/03 03:25:22;;;;;;;14.73;5.45;;;16.40;93.90;;;;;;4914048;29;20090;-78
2023/07/03 03:28:09;;;;;;;12.85;4.97;;;16.40;93.90;;;;;;4895410;29;20068;-79
2023/07/03 03:30:55;;;;;;;17.83;5.35;;;16.40;94.00;;;;;;4912637;29;20151;-79
2023/07/03 03:33:41;;;;;;;14.55;4.80;;;16.40;94.00;;;;;;4910957;29;20515;-79
2023/07/03 03:36:27;;;;;;;16.67;5.60;;;16.40;94.10;;;;;;4905779;29;20058;-78
2023/07/03 03:39:13;;;;;;;13.88;5.50;;;16.40;94.20;;;;;;4905227;29;20036;-78
2023/07/03 03:41:59;;;;;;;18.13;6.75;;;16.40;94.30;;;;;;4896520;29;20045;-79
2023/07/03 03:44:45;;;;;;;15.98;5.68;;;16.40;94.20;;;;;;4906603;29;20058;-79
2023/07/03 03:47:31;;;;;;;12.45;4.72;;;16.40;94.20;;;;;;4919691;29;20051;-79
2023/07/03 03:50:17;;;;;;;14.38;5.80;;;16.40;94.40;;;;;;4900013;29;20037;-79
2023/07/03 03:53:03;;;;;;;19.90;5.43;;;16.30;94.60;;;;;;4906605;29;20036;-79
2023/07/03 03:55:50;;;;;;;14.65;5.35;;;16.40;94.60;;;;;;4892352;29;20040;-79
2023/07/03 03:58:36;;;;;;;13.10;5.40;;;16.40;95.00;;;;;;4914473;29;20048;-79
2023/07/03 04:01:22;;;;;;;15.35;5.80;;;16.40;94.70;;;;;;4906317;29;20044;-78
2023/07/03 04:04:08;;;;;;;14.02;4.88;;;16.30;94.90;;;;;;4905870;29;20050;-78
2023/07/03 04:06:56;;;;;;;12.90;5.30;;;16.30;95.00;;;;;;4883602;29;20053;-78
2023/07/03 04:09:42;;;;;;;15.30;5.75;;;16.20;95.10;;;;;;4887881;29;20089;-78
2023/07/03 04:12:28;;;;;;;16.88;5.20;;;16.30;95.20;;;;;;4883271;29;20466;-78
2023/07/03 04:15:16;;;;;;;11.65;5.03;;;16.30;95.30;;;;;;4899923;29;20049;-78
2023/07/03 04:18:03;;;;;;;15.52;5.10;;;16.30;95.40;;;;;;4876118;29;20123;-79
2023/07/03 04:20:49;;;;;;;13.52;5.20;;;16.30;95.50;;;;;;4896594;29;20044;-79
2023/07/03 04:23:35;;;;;;;16.98;5.63;;;16.30;95.50;;;;;;4890410;29;20044;-79
2023/07/03 04:26:22;;;;;;;14.05;5.43;;;16.20;95.70;;;;;;4897082;29;20041;-78
2023/07/03 04:29:08;;;;;;;16.75;5.40;;;16.20;95.80;;;;;;4874286;29;20044;-78
2023/07/03 04:31:57;;;;;;;15.88;5.35;;;16.30;95.90;;;;;;4899194;29;20514;-78
2023/07/03 04:34:43;;;;;;;16.92;5.90;;;16.20;96.00;;;;;;4879627;29;20382;-78
2023/07/03 04:37:29;;;;;;;17.73;5.03;;;16.20;96.30;;;;;;4885363;29;20059;-78
2023/07/03 04:40:16;;;;;;;14.77;6.00;;;16.20;96.30;;;;;;4874242;29;20079;-78
2023/07/03 04:43:02;;;;;;;16.40;5.75;;;16.20;96.40;;;;;;4886468;29;20135;-78
2023/07/03 04:45:49;;;;;;;20.73;5.40;;;16.30;96.50;;;;;;4889845;29;20051;-79
2023/07/03 04:48:35;;;;;;;14.02;5.25;;;16.20;96.20;;;;;;4895542;29;20458;-78
2023/07/03 04:51:21;;;;;;;13.50;5.22;;;16.20;96.60;;;;;;4896095;29;20051;-78
2023/07/03 04:54:07;;;;;;;11.77;5.55;;;16.10;96.50;;;;;;4884638;29;20049;-78
2023/07/03 04:57:03;;;;;;;15.18;6.63;;;16.10;96.80;;;;;;4881118;29;20037;-78
2023/07/03 04:59:49;;;;;;;16.77;6.75;;;16.00;96.60;;;;;;4899865;29;20100;-79
2023/07/03 05:02:35;;;;;;;16.52;5.93;;;16.10;96.90;;;;;;4882897;29;20052;-79
2023/07/03 05:05:21;;;;;;;16.05;6.10;;;16.00;96.90;;;;;;4908049;29;20059;-79
2023/07/03 05:08:07;;;;;;;15.02;5.63;;;16.00;97.10;;;;;;4903487;29;20075;-78
2023/07/03 05:10:54;;;;;;;15.20;5.63;;;16.10;96.90;;;;;;4897599;29;20041;-78
2023/07/03 05:13:40;;;;;;;14.77;5.00;;;16.00;97.00;;;;;;4902771;29;20040;-78
2023/07/03 05:16:26;;;;;;;15.65;5.47;;;16.00;97.20;;;;;;4904535;29;20092;-78
2023/07/03 05:19:13;;;;;;;13.68;5.50;;;16.10;97.40;;;;;;4906838;29;20106;-79
2023/07/03 05:21:59;;;;;;;15.93;5.63;;;16.00;97.30;;;;;;4904718;29;20071;-78
2023/07/03 05:24:45;;;;;;;14.48;5.50;;;16.10;97.20;;;;;;4903199;29;20048;-78
2023/07/03 05:27:32;;;;;;;11.88;4.88;;;15.90;97.70;;;;;;4901726;29;20060;-78
2023/07/03 05:30:18;;;;;;;14.52;6.10;;;15.90;97.80;;;;;;4903328;29;20040;-77
2023/07/03 05:33:04;;;;;;;15.23;6.20;;;16.00;98.00;;;;;;4904061;29;20040;-78
2023/07/03 05:35:50;;;;;;;14.70;5.30;;;16.00;97.80;;;;;;4918935;29;20690;-78
2023/07/03 05:38:36;;;;;;;14.35;5.40;;;16.00;97.90;;;;;;4898952;29;20052;-78
2023/07/03 05:41:24;;;;;;;15.73;5.30;;;16.00;97.80;;;;;;4903566;29;20151;-78
2023/07/03 05:44:10;;;;;;;15.82;5.50;;;15.90;98.00;;;;;;4916128;29;20119;-78
2023/07/03 05:46:58;;;;;;;14.80;4.97;;;16.00;97.90;;;;;;4912093;29;20047;-78
2023/07/03 05:49:44;;;;;;;18.33;4.95;;;15.90;98.10;;;;;;4904516;29;20466;-78
2023/07/03 05:52:33;;;;;;;15.13;4.50;;;16.00;98.10;;;;;;4919627;29;20135;-78
2023/07/03 05:55:19;;;;;;;13.05;4.47;;;15.90;98.00;;;;;;4904809;29;20043;-80
2023/07/03 05:58:05;;;;;;;12.73;4.50;;;15.90;97.90;;;;;;4891761;29;20048;-79
2023/07/03 06:00:51;;;;;;;17.92;6.03;;;16.10;98.10;;;;;;4904949;29;20083;-79
2023/07/03 06:03:41;;;;;;;19.35;5.05;;;16.00;98.10;;;;;;4890266;29;20040;-80
2023/07/03 06:06:27;;;;;;;14.75;4.78;;;16.00;97.90;;;;;;4904619;29;20052;-80
2023/07/03 06:09:13;;;;;;;16.17;5.35;;;16.00;98.20;;;;;;4900152;29;20123;-80
2023/07/03 06:12:00;;;;;;;14.07;4.55;;;16.00;98.20;;;;;;4903756;29;20390;-80
2023/07/03 06:14:46;;;;;;;15.70;4.88;;;16.10;97.80;;;;;;4907331;29;20104;-80
2023/07/03 06:17:36;;;;;;;16.50;5.07;;;16.10;97.80;;;;;;4921591;29;20048;-80
2023/07/03 06:20:23;;;;;;;14.38;4.05;;;16.10;97.60;;;;;;4890517;29;20123;-79
2023/07/03 06:23:13;;;;;;;15.10;4.57;;;16.20;97.90;;;;;;4921437;29;20046;-79
2023/07/03 06:26:00;;;;;;;18.13;5.68;;;16.40;98.20;;;;;;4923503;29;20363;-79
2023/07/03 06:28:46;;;;;;;13.23;4.05;;;16.40;97.50;;;;;;4921995;29;20127;-79
2023/07/03 06:31:34;;;;;;;18.13;4.57;;;16.60;97.40;;;;;;5845268;23;20026;-79
2023/07/03 06:34:31;;;;;;;16.20;4.53;;;16.60;97.50;;;;;;4939358;29;20019;-79
2023/07/03 06:45:16;;;;;;;17.38;4.00;;;16.80;97.00;;;;;;5127102;23;20039;-81
2023/07/03 07:19:11;;;;;;;19.33;4.28;;;17.10;96.30;;;;;;5261735;23;20060;-79
2023/07/03 07:21:57;;;;;;;15.50;4.35;;;17.20;96.40;;;;;;4970131;28;20079;-79
2023/07/03 07:24:48;;;;;;;14.90;4.07;;;17.50;96.80;;;;;;4951918;28;20050;-80
2023/07/03 07:27:39;;;;;;;15.45;3.47;;;17.20;96.50;;;;;;4963204;28;20046;-80
2023/07/03 07:30:39;;;;;;;16.50;4.22;;;17.40;96.90;;;;;;5066069;28;20375;-78
2023/07/03 07:33:26;;;;;;;16.05;4.28;;;17.20;96.60;;;;;;5055715;28;20178;-78
2023/07/03 07:36:13;;;;;;;15.20;4.50;;;17.10;96.60;;;;;;5071857;28;20040;-78
2023/07/03 07:39:00;;;;;;;17.63;4.50;;;17.30;96.40;;;;;;5052666;28;20349;-79
2023/07/03 07:41:46;;;;;;;20.55;5.03;;;17.30;96.10;;;;;;5038496;28;20144;-79
2023/07/03 07:44:33;;;;;;;20.52;4.85;;;17.40;95.70;;;;;;5065509;28;20443;-80
2023/07/03 07:47:19;;;;;;;16.27;4.82;;;17.50;95.10;;;;;;5055424;28;20453;-79
2023/07/03 07:50:07;;;;;;;21.33;4.53;;;17.50;95.30;;;;;;5056024;28;20044;-79
2023/07/03 07:52:53;;;;;;;19.65;4.80;;;17.50;95.20;;;;;;5056899;28;20033;-79
2023/07/03 07:55:39;;;;;;;17.45;4.32;;;17.40;95.50;;;;;;5054884;28;20045;-80
2023/07/03 07:58:25;;;;;;;13.95;4.30;;;17.60;94.90;;;;;;5037223;28;20029;-79
2023/07/03 08:01:14;;;;;;;14.55;4.03;;;17.50;94.60;;;;;;5066221;28;20532;-79
2023/07/03 08:04:00;;;;;;;14.57;3.95;;;17.70;95.10;;;;;;5056121;28;20032;-79
2023/07/03 08:06:46;;;;;;;15.55;4.38;;;17.80;94.60;;;;;;5051428;28;20032;-79
2023/07/03 08:09:32;;;;;;;13.45;4.40;;;17.70;94.90;;;;;;5035282;28;20075;-79
2023/07/03 08:12:18;;;;;;;21.20;4.60;;;17.50;94.80;;;;;;5062070;28;20041;-79
2023/07/03 08:15:05;;;;;;;18.70;4.50;;;17.10;95.80;;;;;;5050254;28;20154;-80
2023/07/03 08:17:51;;;;;;;13.65;3.85;;;17.00;95.80;;;;;;5054075;28;20044;-79
2023/07/03 08:20:37;;;;;;;17.73;4.13;;;16.90;95.80;;;;;;5047303;28;20098;-81
2023/07/03 08:23:24;;;;;;;14.02;3.90;;;16.80;95.70;;;;;;5038499;28;20466;-81
2023/07/03 08:26:19;;;;;;;17.77;3.92;;;16.80;95.70;;;;;;5048382;28;20044;-81
2023/07/03 08:29:05;;;;;;;19.48;4.32;;;16.80;96.20;;;;;;5040481;28;20068;-80
2023/07/03 08:31:51;;;;;;;16.98;4.65;;;17.00;96.10;;;;;;5053786;28;20037;-79
2023/07/03 08:34:37;;;;;;;17.35;4.25;;;17.10;96.10;;;;;;5035949;28;20048;-80
2023/07/03 08:37:25;;;;;;;14.05;4.15;;;17.20;96.40;;;;;;5054125;28;20060;-80
2023/07/03 08:40:13;;;;;;;15.15;4.32;;;17.10;95.80;;;;;;5037616;28;20377;-80
2023/07/03 08:43:00;;;;;;;18.48;5.03;;;17.20;96.00;;;;;;5024208;28;20127;-80
2023/07/03 08:45:48;;;;;;;14.15;4.00;;;17.20;95.60;;;;;;5036674;28;20161;-80
2023/07/03 08:48:35;;;;;;;21.05;4.53;;;17.30;95.90;;;;;;5020425;28;20041;-80
2023/07/03 08:51:25;;;;;;;16.20;4.45;;;17.50;95.50;;;;;;5028169;28;20761;-81
2023/07/03 08:54:32;;;;;;;13.82;3.83;;;17.50;95.60;;;;;;5015703;28;20033;-80
2023/07/03 08:57:20;;;;;;;14.38;4.25;;;17.80;94.80;;;;;;5040020;28;20040;-80
2023/07/03 09:00:11;;;;;;;19.65;4.20;;;18.00;95.00;;;;;;5042334;28;20037;-81
2023/07/03 09:03:22;;;;;;;18.38;4.50;;;17.80;94.80;;;;;;5054905;28;20041;-80
2023/07/03 09:06:21;;;;;;;17.85;4.50;;;17.80;95.10;;;;;;5066403;28;20099;-80
2023/07/03 09:09:27;;;;;;;16.88;3.88;;;17.70;95.20;;;;;;5040974;28;20051;-81
2023/07/03 09:12:23;;;;;;;18.48;3.83;;;17.80;95.10;;;;;;5048159;28;20040;-81
2023/07/03 09:15:14;;;;;;;15.35;4.47;;;17.80;95.10;;;;;;5034962;28;20420;-81
2023/07/03 09:18:02;;;;;;;18.33;4.25;;;17.70;95.50;;;;;;5015903;28;20478;-80
2023/07/03 09:20:48;;;;;;;24.02;4.97;;;17.50;96.20;;;;;;5029984;28;21170;-80
2023/07/03 09:23:40;;;;;;;20.95;5.25;;;17.60;96.60;;;;;;5038313;28;20053;-81
2023/07/03 09:26:36;;;;;;;18.65;4.45;;;17.40;97.10;;;;;;5036067;28;20033;-80
2023/07/03 09:29:23;;;;;;;17.70;4.95;;;17.30;97.90;;;;;;5037528;28;20084;-81
2023/07/03 09:32:26;;;;;;;21.40;4.35;;;17.20;98.40;;;;;;5055485;28;20351;-80
2023/07/03 09:35:21;;;;;;;27.98;4.75;;;17.00;99.70;;;;;;5035584;28;20048;-80
2023/07/03 09:38:36;;;;;;;17.98;4.60;;;17.00;99.60;;;;;;5039372;28;20060;-80
2023/07/03 09:41:27;;;;;;;19.10;5.28;;;17.40;99.30;;;;;;5037432;28;20038;-81
2023/07/03 09:44:14;;;;;;;20.70;5.80;;;17.50;99.40;;;;;;5007510;28;20421;-80
2023/07/03 09:47:01;;;;;;;18.42;4.90;;;17.60;99.50;;;;;;5037955;28;20362;-80
2023/07/03 09:49:47;;;;;;;18.95;4.78;;;17.80;99.00;;;;;;5033603;28;20056;-81
2023/07/03 09:52:33;;;;;;;18.40;4.40;;;17.80;98.90;;;;;;5026267;28;20445;-80
2023/07/03 09:55:19;;;;;;;17.95;4.60;;;17.90;99.00;;;;;;5030402;28;20033;-80
2023/07/03 09:58:15;;;;;;;19.55;4.60;;;17.70;98.10;;;;;;5021933;28;20049;-80
2023/07/03 10:01:01;;;;;;;16.20;4.63;;;17.70;98.20;;;;;;5031929;28;20078;-80
2023/07/03 10:03:47;;;;;;;20.15;4.53;;;17.70;98.40;;;;;;5028643;28;20366;-80
2023/07/03 10:06:33;;;;;;;20.10;3.88;;;17.60;98.10;;;;;;5016897;28;20045;-81
2023/07/03 10:09:25;;;;;;;19.20;4.43;;;17.70;97.50;;;;;;5013332;28;20037;-81
2023/07/03 10:12:22;;;;;;;20.85;4.65;;;17.80;98.00;;;;;;5037382;28;20091;-81
2023/07/03 10:15:16;;;;;;;19.25;4.68;;;17.90;98.00;;;;;;5020666;28;20040;-81
2023/07/03 10:18:14;;;;;;;14.63;4.10;;;18.00;97.40;;;;;;5047642;28;20041;-82
2023/07/03 10:21:03;;;;;;;16.88;4.78;;;18.30;96.30;;;;;;5039601;28;20098;-80
2023/07/03 10:23:49;;;;;;;23.30;5.35;;;18.30;97.30;;;;;;5029918;28;20121;-80
2023/07/03 10:26:42;;;;;;;20.30;5.80;;;18.00;97.80;;;;;;5034677;28;20040;-80
2023/07/03 10:29:41;;;;;;;17.17;4.05;;;18.10;98.30;;;;;;5020873;28;20089;-79
2023/07/03 10:32:28;;;;;;;15.65;4.07;;;17.90;95.70;;;;;;5041002;28;20666;-80
2023/07/03 10:35:27;;;;;;;15.77;3.97;;;18.40;96.20;;;;;;5014360;28;20037;-80
2023/07/03 10:38:31;;;;;;;16.05;3.80;;;18.80;95.20;;;;;;5021735;28;20045;-81
2023/07/03 10:42:09;;;;;;;17.83;3.75;;;18.70;92.60;;;;;;5037360;28;20041;-79
2023/07/03 10:45:04;;;;;;;18.00;3.65;;;18.60;92.70;;;;;;5049186;28;20128;-80
2023/07/03 10:48:05;;;;;;;17.45;3.60;;;19.00;92.90;;;;;;5011757;28;20069;-81
2023/07/03 10:51:06;;;;;;;14.10;3.90;;;19.00;91.70;;;;;;5017005;28;20091;-80
2023/07/03 10:54:05;;;;;;;14.13;3.38;;;18.80;90.30;;;;;;5032725;28;20029;-79
2023/07/03 10:56:51;;;;;;;;;;;18.50;90.20;;;;;;5013566;28;20071;-80
2023/07/03 10:59:40;;;;;;;14.25;3.88;;;18.50;90.40;;;;;;5044079;28;20241;-80
2023/07/03 11:02:57;;;;;;;15.02;3.60;;;18.60;91.10;;;;;;5007766;28;20037;-80
2023/07/03 11:06:04;;;;;;;9.07;3.33;;;18.60;91.40;;;;;;5023281;28;20072;-79
2023/07/03 11:09:14;;;;;;;9.67;3.17;;;18.60;91.20;;;;;;5033837;28;20052;-80
2023/07/03 11:12:32;;;;;;;13.82;3.72;;;18.60;91.40;;;;;;5039957;28;20501;-80
2023/07/03 11:15:40;;;;;;;12.48;3.30;;;18.30;91.30;;;;;;5037252;28;20120;-80
2023/07/03 11:18:48;;;;;;;12.25;3.25;;;18.40;91.60;;;;;;5036651;28;20746;-79
2023/07/03 11:21:39;;;;;;;17.08;4.25;;;18.20;91.50;;;;;;5040528;28;20033;-79
2023/07/03 11:24:35;;;;;;;12.93;3.58;;;18.10;91.70;;;;;;5024416;28;20045;-79
2023/07/03 11:27:27;;;;;;;14.82;3.45;;;18.00;91.60;;;;;;5022952;28;20048;-80
2023/07/03 11:30:14;;;;;;;16.63;3.53;;;18.00;92.10;;;;;;5041583;28;20046;-80
2023/07/03 11:33:01;;;;;;;11.20;2.92;;;18.10;91.80;;;;;;5025277;28;20037;-80
2023/07/03 11:35:52;;;;;;;11.73;3.13;;;18.00;91.60;;;;;;5022558;28;20038;-76
2023/07/03 11:38:38;;;;;;;15.60;4.47;;;18.30;91.90;;;;;;5033532;28;20489;-76
2023/07/03 11:41:27;;;;;;;11.15;3.25;;;18.40;91.50;;;;;;5028899;28;20056;-78
2023/07/03 11:44:28;;;;;;;12.02;3.58;;;18.60;91.50;;;;;;5006066;28;20042;-80
2023/07/03 11:47:25;;;;;;;13.40;4.50;;;18.70;92.00;;;;;;5020614;28;20048;-77
2023/07/03 11:50:11;;;;;;;12.57;3.40;;;18.70;91.00;;;;;;5026710;28;20045;-80
2023/07/03 11:52:57;;;;;;;16.02;3.45;;;18.70;90.40;;;;;;5008435;28;20041;-78
2023/07/03 11:55:43;;;;;;;14.32;3.35;;;19.10;90.80;;;;;;5033458;28;20072;-80
2023/07/03 11:58:30;;;;;;;10.13;3.30;;;19.00;90.80;;;;;;5028989;28;20493;-81
2023/07/03 12:01:25;;;;;;;12.47;3.33;;;19.00;89.10;;;;;;5019722;28;20040;-82
2023/07/03 12:04:11;;;;;;;10.68;3.20;;;19.30;89.70;;;;;;5024811;28;20121;-78
2023/07/03 12:06:58;;;;;;;11.40;3.15;;;19.50;88.20;;;;;;5034759;28;20032;-78
2023/07/03 12:09:44;;;;;;;11.25;2.92;;;19.50;87.80;;;;;;5018895;28;20049;-78
2023/07/03 12:12:34;;;;;;;9.55;3.05;;;19.80;89.30;;;;;;5029851;28;20041;-78
2023/07/03 12:15:20;;;;;;;9.27;2.92;;;19.70;86.80;;;;;;5019867;28;20033;-77
2023/07/03 12:18:06;;;;;;;11.73;3.00;;;19.90;87.00;;;;;;5015967;28;20033;-82
2023/07/03 12:21:00;;;;;;;8.77;2.60;;;20.00;85.00;;;;;;5040326;28;20087;-81
2023/07/03 12:23:46;;;;;;;11.38;2.85;;;19.90;83.80;;;;;;5035368;28;20044;-80
2023/07/03 12:26:32;;;;;;;9.55;2.85;;;19.90;82.30;;;;;;5032415;28;20057;-79
2023/07/03 12:29:21;;;;;;;8.27;2.90;;;20.00;80.70;;;;;;5019156;28;20163;-81
2023/07/03 12:32:08;;;;;;;8.05;2.47;;;19.90;81.60;;;;;;5025933;28;20470;-78
2023/07/03 12:35:01;;;;;;;12.35;3.35;;;20.00;79.20;;;;;;5044408;28;20041;-81
2023/07/03 12:37:58;;;;;;;12.30;3.28;;;19.80;80.00;;;;;;5020220;28;20036;-82
2023/07/03 12:40:46;;;;;;;13.82;3.47;;;20.30;82.10;;;;;;5029325;28;20474;-81
2023/07/03 12:43:33;;;;;;;10.37;2.70;;;20.30;81.20;;;;;;5036844;28;20132;-81
2023/07/03 12:46:48;;;;;;;14.10;3.10;;;20.50;81.80;;;;;;5014972;28;20133;-80
2023/07/03 12:50:00;;;;;;;13.75;2.85;;;20.30;79.40;;;;;;5032484;28;20045;-78
2023/07/03 12:52:46;;;;;;;9.45;3.22;;;19.90;79.50;;;;;;5027825;28;20083;-79
2023/07/03 12:55:34;;;;;;;10.90;2.22;;;19.60;79.60;;;;;;5020281;28;20041;-78
2023/07/03 12:58:23;;;;;;;8.18;2.72;;;19.40;81.10;;;;;;5032736;28;20041;-79
2023/07/03 13:01:09;;;;;;;10.38;2.88;;;19.40;81.40;;;;;;5025909;28;20049;-81
2023/07/03 13:03:55;;;;;;;12.57;3.22;;;19.30;80.90;;;;;;5024282;28;20043;-81
2023/07/03 13:06:42;;;;;;;9.45;3.30;;;19.20;81.10;;;;;;5030726;28;20143;-81
2023/07/03 13:09:29;;;;;;;9.07;2.57;;;19.20;81.70;;;;;;5021121;28;20161;-81
2023/07/03 13:12:21;;;;;;;13.13;3.22;;;19.30;81.90;;;;;;5034722;28;20274;-81
2023/07/03 13:15:11;;;;;;;11.88;3.55;;;19.30;81.90;;;;;;5024913;28;20094;-81
2023/07/03 13:18:09;;;;;;;12.80;3.20;;;19.40;83.40;;;;;;5025469;28;20048;-81
2023/07/03 13:20:58;;;;;;;9.63;3.10;;;19.40;82.70;;;;;;5031012;28;20045;-80
2023/07/03 13:23:44;;;;;;;10.60;3.13;;;19.40;84.10;;;;;;5038792;28;20503;-76
2023/07/03 13:26:31;;;;;;;9.88;3.42;;;19.20;84.70;;;;;;5021420;28;20075;-76
2023/07/03 13:29:29;;;;;;;12.02;3.63;;;19.00;84.70;;;;;;5009762;28;20406;-76
2023/07/03 13:32:17;;;;;;;12.65;3.72;;;18.90;85.10;;;;;;5035456;28;20547;-75
2023/07/03 13:35:04;;;;;;;14.40;3.83;;;18.90;85.50;;;;;;5042791;28;20044;-78
2023/07/03 13:37:50;;;;;;;9.93;3.00;;;19.10;86.30;;;;;;5031104;28;20366;-76
2023/07/03 13:40:36;;;;;;;9.05;3.50;;;19.30;85.50;;;;;;5026503;28;20044;-76
2023/07/03 13:43:24;;;;;;;9.30;2.92;;;19.10;85.00;;;;;;5042984;28;20056;-77
2023/07/03 13:46:10;;;;;;;12.27;3.03;;;19.10;86.20;;;;;;5016210;28;20083;-75
2023/07/03 13:48:56;;;;;;;9.70;2.70;;;19.00;86.40;;;;;;5027137;28;20049;-75
2023/07/03 13:51:44;;;;;;;11.45;3.50;;;19.00;86.20;;;;;;5017851;28;20083;-76
2023/07/03 13:54:32;;;;;;;12.07;3.13;;;18.80;86.20;;;;;;5045935;28;20116;-75
2023/07/03 13:57:18;;;;;;;12.38;3.25;;;18.80;86.20;;;;;;5036860;28;20033;-76
2023/07/03 14:00:07;;;;;;;14.50;4.15;;;18.80;86.90;;;;;;5036654;28;20041;-76
2023/07/03 14:02:53;;;;;;;12.85;2.90;;;18.80;87.00;;;;;;5040275;28;20461;-76
2023/07/03 14:05:40;;;;;;;9.82;3.28;;;18.70;86.00;;;;;;5054579;28;20068;-77
2023/07/03 14:08:28;;;;;;;11.63;3.20;;;18.60;86.60;;;;;;5037770;28;20136;-76
2023/07/03 14:11:14;;;;;;;10.90;2.95;;;18.60;86.90;;;;;;5030858;28;20041;-76
2023/07/03 14:14:00;;;;;;;9.35;3.90;;;18.60;87.90;;;;;;5020605;28;20111;-77
2023/07/03 14:16:49;;;;;;;10.38;2.78;;;18.50;88.70;;;;;;5030726;28;20045;-77
2023/07/03 14:19:35;;;;;;;14.68;3.55;;;18.50;89.00;;;;;;5022793;28;20033;-76
2023/07/03 14:22:24;;;;;;;13.85;3.30;;;18.50;88.60;;;;;;5047004;28;20034;-76
2023/07/03 14:25:11;;;;;;;15.15;3.88;;;18.40;88.80;;;;;;5038505;28;20095;-76
2023/07/03 14:27:58;;;;;;;11.48;3.35;;;18.40;89.30;;;;;;5034261;28;20373;-76
2023/07/03 14:30:46;;;;;;;10.95;3.67;;;18.30;89.50;;;;;;5053318;28;20049;-76
2023/07/03 14:33:32;;;;;;;11.02;3.80;;;18.30;89.60;;;;;;5024516;28;20094;-76
2023/07/03 14:36:18;;;;;;;12.30;3.63;;;18.40;90.30;;;;;;5033553;28;20048;-76
2023/07/03 14:39:06;;;;;;;12.38;3.35;;;18.30;90.30;;;;;;5037704;28;20115;-77
2023/07/03 14:41:52;;;;;;;11.60;3.63;;;18.40;90.50;;;;;;5042559;28;20486;-77
2023/07/03 14:44:41;;;;;;;11.23;3.40;;;18.40;90.60;;;;;;5027291;28;20041;-74
2023/07/03 14:47:30;;;;;;;15.05;3.80;;;18.50;90.80;;;;;;5024686;28;20052;-76
2023/07/03 14:50:48;;;;;;;12.98;3.80;;;18.80;90.60;;;;;;5028388;28;20382;-75
2023/07/03 14:53:34;;;;;;;14.38;4.43;;;19.10;90.10;;;;;;5039448;28;20064;-76
2023/07/03 14:56:33;;;;;;;12.93;4.75;;;19.20;89.50;;;;;;5025383;28;20116;-75
2023/07/03 14:59:21;;;;;;;15.07;4.20;;;19.20;90.30;;;;;;5029569;28;20055;-76
2023/07/03 15:02:07;;;;;;;;;;;19.40;89.20;;;;;;5027673;28;20044;-76
2023/07/03 15:04:58;;;;;;;14.38;4.03;;;19.60;90.00;;;;;;5033255;28;19919;-75
2023/07/03 15:07:48;;;;;;;13.20;4.13;;;19.80;89.60;;;;;;5030085;28;20696;-77
2023/07/03 15:10:35;;;;;;;10.32;3.78;;;19.50;88.10;;;;;;5030267;28;20536;-75